createdAt,value
2019-05-03T00:02:44.061Z,7.38
2019-05-03T00:05:22.778Z,7.32
2019-05-03T00:07:53.603Z,7.17
2019-05-03T00:10:22.711Z,7.14
2019-05-03T00:12:52.797Z,7.10
2019-05-03T00:15:32.380Z,7.05
2019-05-03T00:18:02.394Z,6.97
2019-05-03T00:20:32.659Z,6.91
2019-05-03T00:23:02.944Z,7.02
2019-05-03T00:25:32.633Z,6.93
2019-05-03T00:28:01.956Z,7.01
2019-05-03T00:30:31.991Z,6.96
2019-05-03T00:33:02.933Z,7.01
2019-05-03T00:35:51.955Z,6.99
2019-05-03T00:38:21.805Z,7.00
2019-05-03T00:40:52.349Z,7.00
2019-05-03T00:43:22.240Z,6.92
2019-05-03T00:45:51.714Z,6.98
2019-05-03T00:48:21.966Z,6.94
2019-05-03T00:50:51.757Z,7.02
2019-05-03T00:53:22.374Z,7.02
2019-05-03T00:55:53.226Z,6.98
2019-05-03T00:58:22.410Z,7.02
2019-05-03T01:00:52.443Z,7.03
2019-05-03T01:03:22.046Z,6.98
2019-05-03T01:05:52.732Z,6.90
2019-05-03T01:08:22.045Z,6.96
2019-05-03T01:10:51.678Z,7.09
2019-05-03T01:13:21.898Z,6.72
2019-05-03T01:16:08.105Z,7.00
2019-05-03T01:18:37.408Z,6.99
2019-05-03T01:21:06.259Z,7.06
2019-05-03T01:23:35.281Z,7.13
2019-05-03T01:26:04.372Z,7.02
2019-05-03T01:28:33.116Z,7.11
2019-05-03T01:31:02.579Z,7.08
2019-05-03T01:33:32.276Z,6.86
2019-05-03T01:36:02.717Z,6.97
2019-05-03T01:38:32.026Z,7.06
2019-05-03T01:41:01.724Z,7.10
2019-05-03T01:43:31.699Z,7.07
2019-05-03T01:46:02.680Z,6.96
2019-05-03T01:48:56.527Z,7.01
2019-05-03T01:51:43.055Z,7.04
2019-05-03T01:54:12.293Z,7.01
2019-05-03T01:56:55.492Z,6.93
2019-05-03T01:59:13.522Z,6.86
2019-05-03T02:01:52.687Z,6.73
2019-05-03T02:04:29.496Z,6.81
2019-05-03T02:06:58.181Z,6.74
2019-05-03T02:09:26.928Z,6.84
2019-05-03T02:11:55.621Z,6.79
2019-05-03T02:14:24.326Z,6.69
2019-05-03T02:16:53.019Z,6.79
2019-05-03T02:19:22.139Z,6.73
2019-05-03T02:21:52.315Z,6.53
2019-05-03T02:24:22.209Z,6.61
2019-05-03T02:26:52.955Z,6.58
2019-05-03T02:29:21.972Z,6.60
2019-05-03T02:31:53.290Z,6.61
2019-05-03T02:34:23.715Z,6.58
2019-05-03T02:36:53.796Z,6.58
2019-05-03T02:39:23.030Z,6.65
2019-05-03T02:41:58.691Z,6.53
2019-05-03T02:44:26.425Z,6.58
2019-05-03T02:47:18.377Z,6.57
2019-05-03T02:49:56.190Z,6.52
2019-05-03T02:52:36.377Z,6.42
2019-05-03T02:55:11.513Z,6.60
2019-05-03T02:57:40.547Z,6.54
2019-05-03T03:00:11.474Z,6.34
2019-05-03T03:02:40.850Z,6.40
2019-05-03T03:05:10.213Z,6.45
2019-05-03T03:07:41.255Z,6.45
2019-05-03T03:10:11.832Z,6.47
2019-05-03T03:12:46.224Z,6.26
2019-05-03T03:15:16.213Z,6.18
2019-05-03T03:17:47.180Z,6.18
2019-05-03T03:20:16.977Z,6.28
2019-05-03T03:22:48.229Z,6.30
2019-05-03T03:25:21.875Z,6.23
2019-05-03T03:27:52.546Z,6.23
2019-05-03T03:30:49.989Z,6.23
2019-05-03T03:33:18.849Z,6.10
2019-05-03T03:35:48.836Z,6.14
2019-05-03T03:38:19.712Z,6.17
2019-05-03T03:40:49.522Z,6.09
2019-05-03T03:43:21.259Z,6.02
2019-05-03T03:45:51.774Z,6.11
2019-05-03T03:48:21.062Z,5.98
2019-05-03T03:50:55.916Z,6.04
2019-05-03T03:53:26.547Z,5.97
2019-05-03T03:55:57.218Z,6.08
2019-05-03T03:58:27.725Z,5.98
2019-05-03T04:00:56.820Z,5.97
2019-05-03T04:03:26.220Z,6.04
2019-05-03T04:05:55.687Z,6.06
2019-05-03T04:08:25.266Z,6.00
2019-05-03T04:10:55.836Z,6.03
2019-05-03T04:13:25.834Z,6.12
2019-05-03T04:16:02.461Z,6.08
2019-05-03T04:18:48.124Z,6.03
2019-05-03T04:21:16.877Z,6.05
2019-05-03T04:23:46.346Z,6.02
2019-05-03T04:26:16.311Z,5.94
2019-05-03T04:28:46.055Z,5.98
2019-05-03T04:31:15.369Z,5.93
2019-05-03T04:33:45.027Z,5.99
2019-05-03T04:36:16.023Z,5.97
2019-05-03T04:38:45.343Z,6.09
2019-05-03T04:41:15.931Z,5.89
2019-05-03T04:43:45.963Z,5.92
2019-05-03T04:46:26.025Z,5.98
2019-05-03T04:48:56.133Z,5.98
2019-05-03T04:51:25.817Z,6.06
2019-05-03T04:54:12.405Z,6.03
2019-05-03T04:56:41.149Z,6.11
2019-05-03T04:59:09.849Z,6.02
2019-05-03T05:01:38.907Z,6.07
2019-05-03T05:04:07.585Z,6.03
2019-05-03T05:06:36.327Z,6.08
2019-05-03T05:09:07.343Z,6.19
2019-05-03T05:11:36.168Z,6.29
2019-05-03T05:14:06.375Z,6.21
2019-05-03T05:16:35.697Z,6.09
2019-05-03T05:19:08.390Z,6.12
2019-05-03T05:21:48.506Z,6.11
2019-05-03T05:24:17.502Z,6.04
2019-05-03T05:26:52.214Z,5.84
2019-05-03T05:29:25.226Z,5.90
2019-05-03T05:31:54.879Z,5.93
2019-05-03T05:34:24.576Z,5.94
2019-05-03T05:36:55.303Z,5.93
2019-05-03T05:39:24.466Z,6.04
2019-05-03T05:41:55.445Z,5.99
2019-05-03T05:44:24.844Z,6.08
2019-05-03T05:47:15.468Z,6.10
2019-05-03T05:50:12.243Z,6.09
2019-05-03T05:52:40.948Z,6.23
2019-05-03T05:55:17.219Z,6.18
2019-05-03T05:58:05.058Z,6.19
2019-05-03T06:00:36.276Z,6.14
2019-05-03T06:03:05.318Z,5.52
2019-05-03T06:05:35.546Z,6.09
2019-05-03T06:08:30.853Z,6.18
2019-05-03T06:11:12.120Z,6.12
2019-05-03T06:13:45.145Z,6.13
2019-05-03T06:16:20.180Z,6.23
2019-05-03T06:19:11.581Z,6.26
2019-05-03T06:21:50.060Z,6.29
2019-05-03T06:24:24.989Z,6.42
2019-05-03T06:26:59.779Z,6.44
2019-05-03T06:29:28.731Z,6.38
2019-05-03T06:32:19.676Z,6.56
2019-05-03T06:34:48.373Z,6.63
2019-05-03T06:37:18.719Z,6.75
2019-05-03T06:39:47.745Z,7.00
2019-05-03T06:42:19.302Z,7.09
2019-05-03T06:44:47.168Z,7.00
2019-05-03T06:47:16.172Z,6.90
2019-05-03T06:49:48.417Z,6.78
2019-05-03T06:52:19.875Z,6.75
2019-05-03T06:54:48.567Z,6.45
2019-05-03T06:57:21.861Z,6.46
2019-05-03T07:00:10.446Z,6.38
2019-05-03T07:03:10.122Z,6.50
2019-05-03T07:05:56.730Z,6.61
2019-05-03T07:08:45.468Z,6.49
2019-05-03T07:11:15.477Z,6.53
2019-05-03T07:13:45.030Z,6.72
2019-05-03T07:16:14.927Z,6.76
2019-05-03T07:18:45.419Z,6.85
2019-05-03T07:21:15.249Z,6.92
2019-05-03T07:23:45.141Z,6.89
2019-05-03T07:26:15.047Z,6.95
2019-05-03T07:28:49.780Z,7.03
2019-05-03T07:31:15.251Z,7.18
2019-05-03T07:33:44.724Z,7.23
2019-05-03T07:36:15.323Z,7.28
2019-05-03T07:38:45.338Z,7.31
2019-05-03T07:41:16.668Z,6.92
2019-05-03T07:43:45.340Z,7.07
2019-05-03T07:46:14.740Z,7.32
2019-05-03T07:48:45.529Z,7.33
2019-05-03T07:51:14.551Z,7.38
2019-05-03T07:53:45.084Z,7.40
2019-05-03T07:56:15.806Z,7.41
2019-05-03T07:58:59.298Z,7.48
2019-05-03T08:01:25.820Z,7.49
2019-05-03T08:03:55.170Z,7.48
2019-05-03T08:06:24.717Z,7.40
2019-05-03T08:08:54.589Z,7.56
2019-05-03T08:11:24.889Z,7.42
2019-05-03T08:13:55.025Z,7.33
2019-05-03T08:16:25.063Z,7.17
2019-05-03T08:18:55.878Z,7.28
2019-05-03T08:21:25.342Z,7.26
2019-05-03T08:23:55.691Z,7.42
2019-05-03T08:26:25.731Z,7.48
2019-05-03T08:28:55.039Z,7.42
2019-05-03T08:31:41.843Z,7.42
2019-05-03T08:34:29.568Z,7.51
2019-05-03T08:37:05.136Z,7.40
2019-05-03T08:39:35.609Z,7.23
2019-05-03T08:42:09.665Z,7.53
2019-05-03T08:44:38.372Z,7.60
2019-05-03T08:47:07.203Z,7.78
2019-05-03T08:49:35.979Z,7.71
2019-05-03T08:52:05.454Z,7.50
2019-05-03T08:54:34.874Z,7.49
2019-05-03T08:57:05.994Z,7.41
2019-05-03T08:59:35.722Z,7.55
2019-05-03T09:02:14.065Z,7.70
2019-05-03T09:04:39.343Z,7.72
2019-05-03T09:07:06.974Z,7.71
2019-05-03T09:09:51.646Z,7.55
2019-05-03T09:12:20.616Z,7.76
2019-05-03T09:14:49.285Z,7.71
2019-05-03T09:17:17.973Z,7.58
2019-05-03T09:19:46.979Z,7.83
2019-05-03T09:22:15.751Z,7.79
2019-05-03T09:24:45.540Z,7.82
2019-05-03T09:27:15.453Z,7.95
2019-05-03T09:29:46.198Z,8.00
2019-05-03T09:32:14.852Z,7.90
2019-05-03T09:34:44.483Z,7.86
2019-05-03T09:37:15.343Z,7.85
2019-05-03T09:39:44.655Z,7.75
2019-05-03T09:42:15.466Z,7.64
2019-05-03T09:44:45.102Z,7.90
2019-05-03T09:47:16.517Z,7.98
2019-05-03T09:49:45.532Z,8.20
2019-05-03T09:52:16.048Z,8.22
2019-05-03T09:54:48.888Z,8.20
2019-05-03T09:57:18.974Z,8.17
2019-05-03T09:59:56.399Z,8.23
2019-05-03T10:02:18.178Z,7.94
2019-05-03T10:04:47.174Z,7.74
2019-05-03T10:07:15.952Z,8.07
2019-05-03T10:09:45.151Z,8.08
2019-05-03T10:12:18.549Z,8.17
2019-05-03T10:14:47.839Z,8.54
2019-05-03T10:17:51.008Z,8.71
2019-05-03T10:20:40.273Z,8.75
2019-05-03T10:23:19.854Z,9.00
2019-05-03T10:25:48.511Z,8.93
2019-05-03T10:28:17.550Z,8.84
2019-05-03T10:30:46.445Z,8.77
2019-05-03T10:33:20.217Z,8.85
2019-05-03T10:35:48.903Z,8.69
2019-05-03T10:38:18.030Z,8.87
2019-05-03T10:40:46.742Z,8.53
2019-05-03T10:43:15.702Z,8.68
2019-05-03T10:45:45.038Z,8.73
2019-05-03T10:48:15.505Z,8.62
2019-05-03T10:50:44.451Z,8.57
2019-05-03T10:53:27.945Z,8.68
2019-05-03T10:56:20.210Z,8.68
2019-05-03T10:58:46.762Z,8.59
2019-05-03T11:01:17.205Z,8.49
2019-05-03T11:03:45.897Z,8.54
2019-05-03T11:06:14.920Z,8.71
2019-05-03T11:08:45.124Z,8.74
2019-05-03T11:11:15.100Z,8.95
2019-05-03T11:13:44.166Z,9.08
2019-05-03T11:16:14.722Z,9.49
2019-05-03T11:18:45.451Z,9.62
2019-05-03T11:21:22.058Z,9.47
2019-05-03T11:23:45.008Z,9.42
2019-05-03T11:26:13.865Z,9.42
2019-05-03T11:28:44.731Z,8.99
2019-05-03T11:31:30.780Z,8.97
2019-05-03T11:36:46.568Z,8.76
2019-05-03T11:39:15.234Z,8.63
2019-05-03T11:41:47.136Z,8.63
2019-05-03T11:44:33.367Z,8.59
2019-05-03T11:47:02.336Z,8.46
2019-05-03T11:49:31.051Z,8.56
2019-05-03T11:52:00.181Z,8.69
2019-05-03T11:54:29.273Z,8.83
2019-05-03T11:56:59.690Z,9.00
2019-05-03T11:59:28.715Z,9.21
2019-05-03T12:02:15.396Z,9.36
2019-05-03T12:04:45.852Z,9.61
2019-05-03T12:07:18.396Z,10.00
2019-05-03T12:09:47.632Z,9.70
2019-05-03T12:12:29.447Z,9.54
2019-05-03T12:15:01.145Z,9.45
2019-05-03T12:17:34.593Z,9.44
2019-05-03T12:20:04.700Z,9.42
2019-05-03T12:22:35.558Z,9.28
2019-05-03T12:25:09.862Z,9.78
2019-05-03T12:27:34.998Z,10.04
2019-05-03T12:30:05.012Z,10.28
2019-05-03T12:32:34.562Z,10.42
2019-05-03T12:35:06.090Z,10.10
2019-05-03T12:37:35.305Z,9.84
2019-05-03T12:40:05.514Z,9.21
2019-05-03T12:42:35.495Z,9.21
2019-05-03T12:45:04.656Z,9.38
2019-05-03T12:47:34.666Z,9.22
2019-05-03T12:50:05.458Z,9.56
2019-05-03T12:52:36.687Z,9.38
2019-05-03T12:55:05.343Z,9.48
2019-05-03T12:57:34.455Z,9.41
2019-05-03T13:00:15.649Z,10.29
2019-05-03T13:02:48.499Z,10.29
2019-05-03T13:05:17.469Z,10.36
2019-05-03T13:07:51.287Z,10.06
2019-05-03T13:10:22.649Z,10.06
2019-05-03T13:12:53.322Z,9.70
2019-05-03T13:15:21.400Z,10.03
2019-05-03T13:17:50.517Z,10.02
2019-05-03T13:20:19.533Z,9.76
2019-05-03T13:22:48.281Z,9.78
2019-05-03T13:25:17.121Z,9.39
2019-05-03T13:27:46.361Z,9.39
2019-05-03T13:30:16.225Z,9.36
2019-05-03T13:32:45.698Z,9.29
2019-05-03T13:35:15.144Z,9.17
2019-05-03T13:37:45.310Z,9.26
2019-05-03T13:40:15.350Z,9.42
2019-05-03T13:42:56.265Z,9.41
2019-05-03T13:45:14.904Z,9.71
2019-05-03T13:47:44.766Z,9.71
2019-05-03T13:50:15.137Z,10.17
2019-05-03T13:52:45.295Z,10.17
2019-05-03T13:55:14.927Z,10.23
2019-05-03T13:57:45.908Z,9.95
2019-05-03T14:00:15.266Z,9.84
2019-05-03T14:02:44.992Z,9.86
2019-05-03T14:05:15.553Z,10.10
2019-05-03T14:07:44.824Z,10.10
2019-05-03T14:10:14.527Z,10.40
2019-05-03T14:12:43.216Z,10.44
2019-05-03T14:15:14.905Z,10.58
2019-05-03T14:17:43.596Z,10.24
2019-05-03T14:20:22.931Z,10.35
2019-05-03T14:22:52.275Z,10.26
2019-05-03T14:25:24.562Z,10.42
2019-05-03T14:27:54.809Z,10.14
2019-05-03T14:30:25.272Z,10.05
2019-05-03T14:32:55.738Z,10.19
2019-05-03T14:35:25.126Z,10.11
2019-05-03T14:37:55.062Z,10.25
2019-05-03T14:40:25.070Z,10.18
2019-05-03T14:42:55.455Z,9.98
2019-05-03T14:45:25.558Z,10.40
2019-05-03T14:47:54.780Z,11.04
2019-05-03T14:50:25.492Z,11.06
2019-05-03T14:52:56.859Z,10.98
2019-05-03T14:55:34.576Z,10.73
2019-05-03T14:58:25.735Z,10.40
2019-05-03T15:01:00.201Z,10.42
2019-05-03T15:03:29.520Z,10.35
2019-05-03T15:05:58.583Z,10.35
2019-05-03T15:08:27.722Z,10.08
2019-05-03T15:10:56.651Z,10.08
2019-05-03T15:13:25.314Z,10.11
2019-05-03T15:15:54.682Z,9.84
2019-05-03T15:18:25.515Z,10.08
2019-05-03T15:20:54.982Z,10.00
2019-05-03T15:23:25.463Z,10.00
2019-05-03T15:25:54.778Z,9.98
2019-05-03T15:28:25.114Z,9.99
2019-05-03T15:30:55.381Z,10.03
2019-05-03T15:33:24.228Z,9.79
2019-05-03T15:35:55.123Z,9.77
2019-05-03T15:38:23.612Z,9.53
2019-05-03T15:40:54.627Z,9.57
2019-05-03T15:43:35.164Z,9.45
2019-05-03T15:46:25.658Z,9.49
2019-05-03T15:48:57.126Z,9.57
2019-05-03T15:51:25.807Z,9.60
2019-05-03T15:53:55.112Z,9.68
2019-05-03T15:56:25.240Z,9.73
2019-05-03T15:58:55.149Z,9.92
2019-05-03T16:01:25.717Z,10.04
2019-05-03T16:03:55.681Z,10.09
2019-05-03T16:06:24.804Z,10.03
2019-05-03T16:08:55.268Z,9.89
2019-05-03T16:11:25.369Z,9.71
2019-05-03T16:13:55.312Z,9.47
2019-05-03T16:16:25.681Z,9.43
2019-05-03T16:18:57.403Z,9.35
2019-05-03T16:21:26.122Z,9.23
2019-05-03T16:23:55.544Z,9.20
2019-05-03T16:26:25.001Z,9.11
2019-05-03T16:29:01.111Z,9.19
2019-05-03T16:31:29.798Z,9.26
2019-05-03T16:33:58.547Z,9.22
2019-05-03T16:36:27.259Z,9.24
2019-05-03T16:38:55.929Z,9.11
2019-05-03T16:41:24.938Z,9.14
2019-05-03T16:43:54.048Z,8.99
2019-05-03T16:46:22.764Z,8.94
2019-05-03T16:48:51.438Z,8.91
2019-05-03T16:51:20.828Z,9.00
2019-05-03T16:53:49.489Z,8.91
2019-05-03T16:56:18.170Z,8.91
2019-05-03T16:58:46.900Z,8.80
2019-05-03T17:01:17.895Z,8.80
2019-05-03T17:03:50.826Z,8.80
2019-05-03T17:06:45.219Z,8.83
2019-05-03T17:09:20.202Z,8.90
2019-05-03T17:12:06.134Z,8.86
2019-05-03T17:14:35.106Z,8.79
2019-05-03T17:17:04.640Z,8.80
2019-05-03T17:19:35.128Z,8.69
2019-05-03T17:22:05.570Z,8.75
2019-05-03T17:24:35.289Z,8.75
2019-05-03T17:27:04.578Z,8.80
2019-05-03T17:29:35.083Z,8.86
2019-05-03T17:32:04.880Z,8.78
2019-05-03T17:34:34.738Z,8.70
2019-05-03T17:37:04.978Z,8.71
2019-05-03T17:40:02.580Z,8.67
2019-05-03T17:42:49.617Z,8.75
2019-05-03T17:45:22.775Z,8.80
2019-05-03T17:47:51.951Z,8.75
2019-05-03T17:50:21.699Z,8.74
2019-05-03T17:53:19.774Z,8.81
2019-05-03T17:55:57.037Z,8.68
2019-05-03T17:58:31.534Z,8.64
2019-05-03T18:01:22.574Z,8.61
2019-05-03T18:04:03.890Z,8.65
2019-05-03T18:06:27.866Z,8.61
2019-05-03T18:09:09.777Z,8.64
2019-05-03T18:11:40.890Z,8.55
2019-05-03T18:14:10.043Z,8.66
2019-05-03T18:16:39.545Z,8.65
2019-05-03T18:19:08.652Z,8.67
2019-05-03T18:21:37.968Z,8.53
2019-05-03T18:24:06.907Z,8.54
2019-05-03T18:26:35.882Z,8.59
2019-05-03T18:29:06.104Z,8.01
2019-05-03T18:31:34.906Z,8.48
2019-05-03T18:34:06.231Z,8.52
2019-05-03T18:42:57.191Z,8.43
2019-05-03T18:45:45.311Z,8.35
2019-05-03T18:48:14.779Z,8.35
2019-05-03T18:50:45.484Z,8.40
2019-05-03T18:53:15.099Z,8.44
2019-05-03T18:55:44.441Z,8.31
2019-05-03T18:58:14.863Z,8.32
2019-05-03T19:00:44.058Z,8.31
2019-05-03T19:03:12.883Z,8.25
2019-05-03T19:05:45.353Z,8.36
2019-05-03T19:08:21.934Z,8.20
2019-05-03T19:10:57.494Z,8.31
2019-05-03T19:13:33.245Z,8.28
2019-05-03T19:16:07.716Z,8.19
2019-05-03T19:18:38.081Z,8.33
2019-05-03T19:21:07.188Z,8.15
2019-05-03T19:23:36.183Z,8.15
2019-05-03T19:26:05.634Z,8.12
2019-05-03T19:28:35.387Z,8.08
2019-05-03T19:31:05.456Z,8.09
2019-05-03T19:33:34.817Z,7.98
2019-05-03T19:36:05.012Z,8.13
2019-05-03T19:38:35.175Z,8.18
2019-05-03T19:41:04.349Z,7.98
2019-05-03T19:43:35.343Z,7.91
2019-05-03T19:46:04.641Z,7.97
2019-05-03T19:48:34.942Z,8.01
2019-05-03T19:51:05.585Z,8.09
2019-05-03T19:53:55.083Z,7.84
2019-05-03T19:56:25.583Z,8.04
2019-05-03T19:58:58.815Z,7.90
2019-05-03T20:01:46.925Z,7.96
2019-05-03T20:04:40.918Z,7.87
2019-05-03T20:07:38.141Z,7.86
2019-05-03T20:10:07.822Z,7.82
2019-05-03T20:12:36.812Z,7.83
2019-05-03T20:15:06.103Z,7.72
2019-05-03T20:17:34.805Z,7.75
2019-05-03T20:20:04.814Z,7.78
2019-05-03T20:22:35.130Z,7.75
2019-05-03T20:25:04.715Z,7.62
2019-05-03T20:27:35.195Z,7.66
2019-05-03T20:30:05.804Z,7.46
2019-05-03T20:32:34.666Z,7.52
2019-05-03T20:35:13.059Z,7.41
2019-05-03T20:37:34.374Z,7.52
2019-05-03T20:40:04.983Z,7.42
2019-05-03T20:43:07.782Z,7.44
2019-05-03T20:45:59.362Z,7.38
2019-05-03T20:48:28.110Z,7.43
2019-05-03T20:50:57.774Z,7.33
2019-05-03T20:53:26.664Z,7.38
2019-05-03T20:55:55.402Z,7.44
2019-05-03T20:58:25.213Z,7.43
2019-05-03T21:00:54.566Z,7.55
2019-05-03T21:03:24.777Z,7.48
2019-05-03T21:05:55.269Z,7.46
2019-05-03T21:08:25.496Z,7.46
2019-05-03T21:10:55.147Z,7.58
2019-05-03T21:13:25.253Z,7.54
2019-05-03T21:16:22.708Z,7.42
2019-05-03T21:19:00.894Z,7.34
2019-05-03T21:21:48.621Z,7.36
2019-05-03T21:24:41.801Z,7.41
2019-05-03T21:27:10.586Z,7.31
2019-05-03T21:29:50.653Z,7.39
2019-05-03T21:32:19.559Z,7.29
2019-05-03T21:34:48.578Z,7.22
2019-05-03T21:40:21.538Z,7.09
2019-05-03T21:42:50.052Z,7.09
2019-05-03T21:45:24.540Z,7.13
2019-05-03T21:48:10.152Z,6.99
2019-05-03T21:50:39.842Z,6.96
2019-05-03T21:53:08.516Z,6.79
2019-05-03T21:55:37.191Z,6.69
2019-05-03T21:58:05.944Z,6.70
2019-05-03T22:00:46.287Z,6.66
2019-05-03T22:03:15.438Z,6.70
2019-05-03T22:05:54.482Z,6.59
2019-05-03T22:08:15.162Z,6.46
2019-05-03T22:10:45.089Z,6.49
2019-05-03T22:13:15.357Z,6.45
2019-05-03T22:15:48.555Z,6.27
2019-05-03T22:18:21.891Z,6.28
2019-05-03T22:20:59.735Z,6.25
2019-05-03T22:23:46.440Z,6.17
2019-05-03T22:26:15.565Z,6.13
2019-05-03T22:28:44.502Z,5.90
2019-05-03T22:31:15.361Z,5.95
2019-05-03T22:33:44.693Z,5.78
2019-05-03T22:36:14.794Z,5.92
2019-05-03T22:38:45.380Z,5.79
2019-05-03T22:41:14.787Z,5.74
2019-05-03T22:43:45.647Z,5.68
2019-05-03T22:46:14.798Z,5.66
2019-05-03T22:48:46.366Z,5.57
2019-05-03T22:51:15.133Z,5.58
2019-05-03T22:53:44.881Z,5.54
2019-05-03T22:56:14.461Z,5.44
2019-05-03T22:58:43.174Z,5.51
2019-05-03T23:01:11.869Z,5.53
2019-05-03T23:03:44.892Z,5.59
2019-05-03T23:06:22.448Z,5.62
2019-05-03T23:08:45.775Z,5.42
2019-05-03T23:11:14.459Z,5.62
2019-05-03T23:13:45.015Z,5.51
2019-05-03T23:16:14.411Z,5.51
2019-05-03T23:18:44.356Z,5.54
2019-05-03T23:21:18.779Z,5.52
2019-05-03T23:23:51.759Z,5.35
2019-05-03T23:26:20.506Z,5.26
2019-05-03T23:28:49.201Z,5.30
2019-05-03T23:31:18.177Z,5.24
2019-05-03T23:33:47.173Z,5.22
2019-05-03T23:36:15.857Z,5.19
2019-05-03T23:38:45.369Z,5.18
2019-05-03T23:41:15.276Z,5.12
2019-05-03T23:43:45.104Z,4.96
2019-05-03T23:46:15.721Z,5.06
2019-05-03T23:48:44.788Z,5.14
2019-05-03T23:51:32.576Z,5.10
2019-05-03T23:54:02.254Z,5.07
2019-05-03T23:56:31.555Z,5.16
2019-05-03T23:59:00.244Z,5.03
